Time;durP1;ratioP1;P1;durP2;ratioP2;P2;SDS_P1;SDS_P2;PMS_P1;PMS_P2;Temp;Humidity;BMP_temperature;BMP_pressure;BME280_temperature;BME280_humidity;BME280_pressure;Samples;Min_cycle;Max_cycle;Signal;HPM_P1;HPM_P2
2023/05/16 00:00:24;;;;;;;;;;;13.40;99.90;;;;;;4951312;28;19918;-69
2023/05/16 00:02:50;;;;;;;;;;;13.30;99.90;;;;;;4945105;28;19991;-66
2023/05/16 00:05:15;;;;;;;;;;;13.30;99.90;;;;;;4946976;28;19987;-66
2023/05/16 00:07:41;;;;;;;;;;;13.30;99.90;;;;;;4949463;28;20414;-67
2023/05/16 00:10:07;;;;;;;;;;;13.30;99.90;;;;;;4947418;28;19914;-67
2023/05/16 00:12:35;;;;;;;;;;;13.40;99.90;;;;;;4950693;28;20359;-67
2023/05/16 00:15:01;;;;;;;;;;;13.40;99.90;;;;;;4947211;28;20016;-66
2023/05/16 00:17:27;;;;;;;;;;;13.30;99.90;;;;;;4959951;28;20482;-66
2023/05/16 00:19:57;;;;;;;;;;;13.30;99.90;;;;;;4951896;28;20250;-66
2023/05/16 00:22:26;;;;;;;;;;;13.20;99.90;;;;;;4945840;28;19926;-66
2023/05/16 00:24:51;;;;;;;;;;;13.30;99.90;;;;;;4948856;28;20425;-66
2023/05/16 00:27:17;;;;;;;;;;;13.30;99.90;;;;;;4951693;28;19918;-66
2023/05/16 00:29:42;;;;;;;;;;;13.30;99.90;;;;;;4952001;28;19911;-66
2023/05/16 00:32:08;;;;;;;;;;;13.30;99.90;;;;;;4944065;28;19910;-66
2023/05/16 00:34:34;;;;;;;;;;;13.30;99.90;;;;;;4948456;28;20640;-66
2023/05/16 00:36:59;;;;;;;;;;;13.30;99.90;;;;;;4943225;28;19918;-67
2023/05/16 00:39:25;;;;;;;;;;;13.30;99.90;;;;;;4949447;28;20196;-67
2023/05/16 00:41:51;;;;;;;;;;;13.30;99.90;;;;;;4937961;28;20009;-67
2023/05/16 00:44:16;;;;;;;;;;;13.20;99.90;;;;;;4948320;28;20249;-66
2023/05/16 00:46:42;;;;;;;;;;;13.10;99.90;;;;;;4938852;28;20566;-66
2023/05/16 00:49:08;;;;;;;;;;;13.10;99.90;;;;;;4949982;28;20001;-67
2023/05/16 00:51:34;;;;;;;;;;;13.10;99.90;;;;;;4952648;28;19914;-67
2023/05/16 00:53:59;;;;;;;;;;;13.10;99.90;;;;;;4948297;28;19918;-68
2023/05/16 00:56:25;;;;;;;;;;;13.10;99.90;;;;;;4943433;28;19933;-68
2023/05/16 00:58:50;;;;;;;;;;;13.10;99.90;;;;;;4934049;28;20407;-68
2023/05/16 01:01:17;;;;;;;;;;;13.20;99.90;;;;;;4946067;28;19918;-67
2023/05/16 01:03:45;;;;;;;;;;;13.10;99.90;;;;;;4937221;28;19914;-67
2023/05/16 01:06:11;;;;;;;;;;;13.20;99.90;;;;;;4949258;28;20040;-67
2023/05/16 01:08:37;;;;;;;;;;;13.20;99.90;;;;;;4944004;28;20049;-67
2023/05/16 01:11:02;;;;;;;;;;;13.20;99.90;;;;;;4942876;28;20469;-67
2023/05/16 01:13:37;;;;;;;;;;;13.20;99.90;;;;;;4943973;28;19949;-66
2023/05/16 01:16:21;;;;;;;;;;;13.20;99.90;;;;;;4944154;28;20434;-66
2023/05/16 01:18:53;;;;;;;;;;;13.20;99.90;;;;;;4945057;28;20452;-67
2023/05/16 01:21:24;;;;;;;;;;;13.10;99.90;;;;;;4946210;28;19918;-66
2023/05/16 01:24:10;;;;;;;;;;;13.10;99.90;;;;;;4945557;28;20371;-66
2023/05/16 01:26:35;;;;;;;;;;;13.10;99.90;;;;;;4949401;28;19926;-66
2023/05/16 01:29:01;;;;;;;;;;;13.20;99.90;;;;;;4943230;28;19979;-66
2023/05/16 01:31:27;;;;;;;;;;;13.20;99.90;;;;;;4942997;28;19914;-66
2023/05/16 01:33:53;;;;;;;;;;;13.10;99.90;;;;;;4943036;28;19914;-67
2023/05/16 01:36:29;;;;;;;;;;;13.20;99.90;;;;;;4947223;28;20231;-67
2023/05/16 01:38:58;;;;;;;;;;;13.30;99.90;;;;;;4949127;28;19918;-67
2023/05/16 01:41:25;;;;;;;;;;;13.20;99.90;;;;;;4945170;28;19917;-70
2023/05/16 01:43:53;;;;;;;;;;;13.20;99.90;;;;;;4947122;28;20007;-70
2023/05/16 01:46:20;;;;;;;;;;;13.20;99.90;;;;;;4947904;28;19933;-70
2023/05/16 01:48:55;;;;;;;;;;;13.20;99.90;;;;;;4949455;28;19921;-70
2023/05/16 01:51:21;;;;;;;;;;;13.20;99.90;;;;;;4952413;28;19914;-71
2023/05/16 01:53:47;;;;;;;;;;;13.20;99.90;;;;;;4945556;28;20350;-70
2023/05/16 01:56:14;;;;;;;;;;;13.30;99.90;;;;;;4947061;28;19918;-71
2023/05/16 01:58:40;;;;;;;;;;;13.30;99.90;;;;;;4945912;28;19920;-71
2023/05/16 02:01:06;;;;;;;;;;;13.30;99.90;;;;;;4940998;28;19921;-71
2023/05/16 02:03:32;;;;;;;;;;;13.30;99.90;;;;;;4948343;28;19993;-70
2023/05/16 02:05:57;;;;;;;;;;;13.20;99.90;;;;;;4946131;28;19922;-70
2023/05/16 02:08:23;;;;;;;;;;;13.20;99.90;;;;;;4944875;28;20340;-70
2023/05/16 02:10:49;;;;;;;;;;;13.20;99.90;;;;;;4950618;28;20284;-70
2023/05/16 02:13:14;;;;;;;;;;;13.10;99.90;;;;;;4951935;28;19929;-70
2023/05/16 02:15:40;;;;;;;;;;;13.10;99.90;;;;;;4947382;28;20264;-70
2023/05/16 02:18:06;;;;;;;;;;;13.10;99.90;;;;;;4945421;28;19921;-69
2023/05/16 02:20:32;;;;;;;;;;;13.10;99.90;;;;;;4949236;28;20139;-69
2023/05/16 02:22:57;;;;;;;;;;;13.10;99.90;;;;;;4946352;28;19914;-69
2023/05/16 02:25:23;;;;;;;;;;;13.10;99.90;;;;;;4944910;28;19949;-69
2023/05/16 02:27:49;;;;;;;;;;;13.10;99.90;;;;;;4945489;28;19993;-69
2023/05/16 02:30:14;;;;;;;;;;;13.10;99.90;;;;;;4942687;28;19960;-69
2023/05/16 02:32:40;;;;;;;;;;;13.10;99.90;;;;;;4943870;28;19922;-71
2023/05/16 02:35:06;;;;;;;;;;;13.20;99.90;;;;;;4942049;28;19917;-70
2023/05/16 02:37:32;;;;;;;;;;;13.20;99.90;;;;;;4940084;28;19919;-71
2023/05/16 02:39:58;;;;;;;;;;;13.30;99.90;;;;;;4947150;28;20050;-71
2023/05/16 02:42:25;;;;;;;;;;;13.30;99.90;;;;;;4947970;28;19914;-70
2023/05/16 02:44:51;;;;;;;;;;;13.30;99.90;;;;;;4943794;28;19922;-70
2023/05/16 02:47:16;;;;;;;;;;;13.30;99.90;;;;;;4948485;28;19987;-70
2023/05/16 02:49:42;;;;;;;;;;;13.20;99.90;;;;;;4945185;28;20359;-70
2023/05/16 02:52:07;;;;;;;;;;;13.20;99.90;;;;;;4951018;28;20368;-70
2023/05/16 02:54:34;;;;;;;;;;;13.20;99.90;;;;;;4947989;28;19960;-70
2023/05/16 02:56:59;;;;;;;;;;;13.20;99.90;;;;;;4947890;28;19914;-71
2023/05/16 02:59:25;;;;;;;;;;;13.30;99.90;;;;;;4946182;28;19921;-70
2023/05/16 03:01:51;;;;;;;;;;;13.20;99.90;;;;;;4945945;28;19918;-71
2023/05/16 03:04:16;;;;;;;;;;;13.30;99.90;;;;;;4943629;28;19914;-71
2023/05/16 03:06:42;;;;;;;;;;;13.30;99.90;;;;;;4943121;28;20069;-71
2023/05/16 03:09:08;;;;;;;;;;;13.20;99.90;;;;;;4952097;28;20333;-71
2023/05/16 03:11:33;;;;;;;;;;;13.20;99.90;;;;;;4953282;28;21069;-71
2023/05/16 03:13:59;;;;;;;;;;;13.20;99.90;;;;;;4949982;28;19918;-70
2023/05/16 03:16:24;;;;;;;;;;;13.20;99.90;;;;;;4951891;28;19913;-67
2023/05/16 03:18:50;;;;;;;;;;;13.30;99.90;;;;;;4952569;28;20466;-67
2023/05/16 03:21:15;;;;;;;;;;;13.20;99.90;;;;;;4955211;28;20426;-67
2023/05/16 03:23:41;;;;;;;;;;;13.20;99.90;;;;;;4952820;28;19918;-67
2023/05/16 03:26:07;;;;;;;;;;;13.20;99.90;;;;;;4955538;28;20300;-67
2023/05/16 03:28:32;;;;;;;;;;;13.20;99.90;;;;;;4950191;28;19968;-67
2023/05/16 03:30:59;;;;;;;;;;;13.30;99.90;;;;;;4948328;28;20024;-67
2023/05/16 03:33:24;;;;;;;;;;;13.30;99.90;;;;;;4946679;28;19924;-67
2023/05/16 03:35:51;;;;;;;;;;;13.20;99.90;;;;;;4952052;28;19918;-70
2023/05/16 03:38:16;;;;;;;;;;;13.20;99.90;;;;;;4951050;28;19913;-71
2023/05/16 03:40:42;;;;;;;;;;;13.20;99.90;;;;;;4948866;28;20038;-71
2023/05/16 03:43:07;;;;;;;;;;;13.30;99.90;;;;;;4955406;28;19919;-71
2023/05/16 03:45:33;;;;;;;;;;;13.30;99.90;;;;;;4946993;28;20064;-70
2023/05/16 03:47:59;;;;;;;;;;;13.30;99.90;;;;;;4953586;28;20680;-70
2023/05/16 03:50:25;;;;;;;;;;;13.30;99.90;;;;;;4951887;28;19960;-70
2023/05/16 03:52:52;;;;;;;;;;;13.30;99.90;;;;;;4953224;28;20407;-69
2023/05/16 03:55:18;;;;;;;;;;;13.30;99.90;;;;;;4950803;28;20013;-69
2023/05/16 03:57:44;;;;;;;;;;;13.30;99.90;;;;;;4951626;28;20630;-70
2023/05/16 04:00:11;;;;;;;;;;;13.30;99.90;;;;;;4949166;28;20355;-69
2023/05/16 04:02:39;;;;;;;;;;;13.30;99.90;;;;;;4954919;28;19910;-70
2023/05/16 04:05:06;;;;;;;;;;;13.30;99.90;;;;;;4951920;28;19933;-69
2023/05/16 04:07:32;;;;;;;;;;;13.30;99.90;;;;;;4968203;28;19933;-70
2023/05/16 04:09:57;;;;;;;;;;;13.30;99.90;;;;;;4953453;28;20320;-70
2023/05/16 04:12:23;;;;;;;;;;;13.40;99.90;;;;;;4950837;28;19965;-66
2023/05/16 04:14:48;;;;;;;;;;;13.40;99.90;;;;;;4953568;28;19918;-66
2023/05/16 04:17:14;;;;;;;;;;;13.40;99.90;;;;;;4952848;28;20379;-66
2023/05/16 04:19:39;;;;;;;;;;;13.40;99.90;;;;;;4951354;28;20019;-66
2023/05/16 04:22:06;;;;;;;;;;;13.40;99.90;;;;;;4952835;28;20481;-66
2023/05/16 04:24:32;;;;;;;;;;;13.50;99.90;;;;;;4947648;28;19929;-66
2023/05/16 04:26:57;;;;;;;;;;;13.50;99.90;;;;;;4946099;28;19927;-66
2023/05/16 04:29:23;;;;;;;;;;;13.50;99.90;;;;;;4949421;28;20196;-66
2023/05/16 04:31:48;;;;;;;;;;;13.50;99.90;;;;;;4950119;28;20410;-69
2023/05/16 04:34:14;;;;;;;;;;;13.60;99.90;;;;;;4946356;28;19921;-70
2023/05/16 04:36:40;;;;;;;;;;;13.60;99.90;;;;;;4951552;28;19925;-70
2023/05/16 04:39:06;;;;;;;;;;;13.60;99.90;;;;;;4954277;28;20028;-70
2023/05/16 04:41:32;;;;;;;;;;;13.70;99.90;;;;;;4954385;28;19918;-70
2023/05/16 04:44:00;;;;;;;;;;;13.70;99.90;;;;;;4951405;28;19918;-70
2023/05/16 04:46:25;;;;;;;;;;;13.80;99.90;;;;;;4945178;28;19922;-70
2023/05/16 04:48:51;;;;;;;;;;;13.80;99.90;;;;;;4955486;28;20393;-70
2023/05/16 04:51:16;;;;;;;;;;;13.80;99.90;;;;;;4949214;28;19953;-66
2023/05/16 04:53:42;;;;;;;;;;;13.80;99.90;;;;;;4950687;28;19921;-66
2023/05/16 04:56:07;;;;;;;;;;;13.80;99.90;;;;;;4947028;28;20203;-66
2023/05/16 04:58:33;;;;;;;;;;;13.80;99.90;;;;;;4947181;28;19924;-67
2023/05/16 05:00:59;;;;;;;;;;;13.80;99.90;;;;;;4944148;28;20061;-66
2023/05/16 05:03:24;;;;;;;;;;;13.90;99.90;;;;;;4942201;28;19973;-66
2023/05/16 05:05:50;;;;;;;;;;;13.90;99.90;;;;;;4948026;28;19968;-67
2023/05/16 05:08:16;;;;;;;;;;;13.90;99.90;;;;;;4950143;28;20370;-67
2023/05/16 05:10:42;;;;;;;;;;;13.90;99.90;;;;;;4950039;28;19984;-67
2023/05/16 05:13:09;;;;;;;;;;;13.90;99.90;;;;;;4949479;28;19923;-68
2023/05/16 05:15:35;;;;;;;;;;;14.00;99.90;;;;;;4950327;28;19925;-68
2023/05/16 05:18:00;;;;;;;;;;;14.00;99.90;;;;;;4952432;28;20291;-69
2023/05/16 05:20:26;;;;;;;;;;;14.00;99.90;;;;;;4940402;28;20021;-68
2023/05/16 05:22:51;;;;;;;;;;;14.00;99.90;;;;;;4947337;28;19965;-68
2023/05/16 05:25:17;;;;;;;;;;;14.10;99.90;;;;;;4945855;28;19930;-68
2023/05/16 05:27:42;;;;;;;;;;;14.10;99.90;;;;;;4944008;28;19957;-71
2023/05/16 05:30:08;;;;;;;;;;;14.20;99.90;;;;;;4941184;28;19937;-70
2023/05/16 05:32:33;;;;;;;;;;;14.30;99.90;;;;;;4953921;28;20021;-70
2023/05/16 05:34:59;;;;;;;;;;;14.30;99.90;;;;;;4945571;28;20322;-70
2023/05/16 05:37:25;;;;;;;;;;;14.40;99.90;;;;;;4945345;28;20380;-71
2023/05/16 05:39:50;;;;;;;;;;;14.40;99.90;;;;;;4948319;28;19968;-71
2023/05/16 05:42:16;;;;;;;;;;;14.30;99.90;;;;;;4940819;28;20278;-71
2023/05/16 05:44:41;;;;;;;;;;;14.40;99.90;;;;;;4942338;28;20426;-71
2023/05/16 05:47:07;;;;;;;;;;;14.50;99.90;;;;;;4949471;28;20084;-67
2023/05/16 05:49:33;;;;;;;;;;;14.50;99.90;;;;;;4948520;28;19932;-67
2023/05/16 05:51:58;;;;;;;;;;;14.50;99.90;;;;;;4943200;28;19918;-67
2023/05/16 05:54:24;;;;;;;;;;;14.50;99.90;;;;;;4952589;28;19918;-67
2023/05/16 05:56:50;;;;;;;;;;;14.50;99.90;;;;;;4950780;28;19918;-67
2023/05/16 05:59:15;;;;;;;;;;;14.60;99.90;;;;;;4952738;28;19997;-67
2023/05/16 06:01:42;;;;;;;;;;;14.50;99.90;;;;;;4949569;28;19917;-67
2023/05/16 06:04:08;;;;;;;;;;;14.50;99.90;;;;;;4948031;28;19926;-67
2023/05/16 06:06:33;;;;;;;;;;;14.50;99.90;;;;;;4949391;28;19922;-66
2023/05/16 06:08:59;;;;;;;;;;;14.50;99.90;;;;;;4947966;28;19977;-71
2023/05/16 06:11:24;;;;;;;;;;;14.60;99.90;;;;;;4948351;28;20457;-71
2023/05/16 06:13:50;;;;;;;;;;;14.60;99.90;;;;;;4945831;28;19929;-71
2023/05/16 06:16:16;;;;;;;;;;;14.60;99.90;;;;;;4948701;28;20559;-71
2023/05/16 06:18:42;;;;;;;;;;;14.60;99.90;;;;;;4951227;28;19910;-71
2023/05/16 06:21:08;;;;;;;;;;;14.60;99.90;;;;;;4953317;28;19976;-72
2023/05/16 06:23:34;;;;;;;;;;;14.70;99.90;;;;;;4949301;28;19918;-72
2023/05/16 06:26:00;;;;;;;;;;;14.70;99.90;;;;;;4937987;28;19929;-72
2023/05/16 06:28:26;;;;;;;;;;;14.70;99.90;;;;;;4954594;28;19984;-72
2023/05/16 06:30:51;;;;;;;;;;;14.70;99.90;;;;;;4942620;28;19914;-71
2023/05/16 06:33:17;;;;;;;;;;;14.70;99.90;;;;;;4933019;28;19926;-72
2023/05/16 06:35:43;;;;;;;;;;;14.70;99.90;;;;;;4946307;28;19917;-72
2023/05/16 06:38:08;;;;;;;;;;;14.70;99.90;;;;;;4948794;28;20340;-72
2023/05/16 06:40:34;;;;;;;;;;;14.70;99.90;;;;;;4947327;28;19932;-72
2023/05/16 06:42:59;;;;;;;;;;;14.80;99.90;;;;;;4948717;28;20474;-73
2023/05/16 06:45:25;;;;;;;;;;;14.70;99.90;;;;;;4950946;28;19915;-67
2023/05/16 06:47:51;;;;;;;;;;;14.80;99.90;;;;;;4964719;28;20394;-67
2023/05/16 06:50:16;;;;;;;;;;;14.80;99.90;;;;;;4956439;28;19918;-66
2023/05/16 06:52:42;;;;;;;;;;;14.70;99.90;;;;;;4954054;28;19910;-68
2023/05/16 06:55:08;;;;;;;;;;;14.70;99.90;;;;;;4952295;28;19961;-67
2023/05/16 06:57:33;;;;;;;;;;;14.60;99.90;;;;;;4953887;28;19914;-67
2023/05/16 06:59:59;;;;;;;;;;;14.60;99.90;;;;;;4950637;28;20005;-67
2023/05/16 07:02:24;;;;;;;;;;;14.50;99.90;;;;;;4944909;28;19913;-67
2023/05/16 07:04:50;;;;;;;;;;;14.50;99.90;;;;;;4950676;28;20448;-73
2023/05/16 07:07:16;;;;;;;;;;;14.40;99.90;;;;;;4950822;28;19944;-73
2023/05/16 07:09:42;;;;;;;;;;;14.40;99.90;;;;;;4946438;28;19910;-73
2023/05/16 07:12:07;;;;;;;;;;;14.40;99.90;;;;;;4951229;28;20473;-71
2023/05/16 07:14:33;;;;;;;;;;;14.40;99.90;;;;;;4951571;28;19918;-71
2023/05/16 07:16:58;;;;;;;;;;;14.40;99.90;;;;;;4956597;28;19921;-71
2023/05/16 07:19:24;;;;;;;;;;;14.40;99.90;;;;;;4941700;28;20425;-71
2023/05/16 07:21:50;;;;;;;;;;;14.40;99.90;;;;;;4950682;28;19919;-71
2023/05/16 07:24:15;;;;;;;;;;;14.50;99.90;;;;;;4946819;28;19921;-72
2023/05/16 07:26:41;;;;;;;;;;;14.40;99.90;;;;;;4944923;28;19980;-72
2023/05/16 07:29:06;;;;;;;;;;;14.40;99.90;;;;;;4946330;28;19918;-73
2023/05/16 07:31:32;;;;;;;;;;;14.30;99.90;;;;;;4945035;28;20609;-71
2023/05/16 07:33:58;;;;;;;;;;;14.30;99.90;;;;;;4943330;28;20386;-72
2023/05/16 07:36:23;;;;;;;;;;;14.30;99.90;;;;;;4951088;28;20316;-71
2023/05/16 07:38:49;;;;;;;;;;;14.40;99.90;;;;;;4955344;28;20018;-71
2023/05/16 07:41:14;;;;;;;;;;;14.40;99.90;;;;;;4953849;28;19967;-71
2023/05/16 07:43:40;;;;;;;;;;;14.40;99.90;;;;;;4955525;28;19937;-70
2023/05/16 07:46:06;;;;;;;;;;;14.40;99.90;;;;;;4953864;28;20387;-71
2023/05/16 07:48:31;;;;;;;;;;;14.40;99.90;;;;;;4954072;28;19920;-71
2023/05/16 07:50:57;;;;;;;;;;;14.40;99.90;;;;;;4955923;28;19910;-72
2023/05/16 07:53:22;;;;;;;;;;;14.40;99.90;;;;;;4945657;28;19988;-72
2023/05/16 07:55:48;;;;;;;;;;;14.50;99.90;;;;;;4946153;28;20371;-71
2023/05/16 07:58:13;;;;;;;;;;;14.50;99.90;;;;;;4957607;28;19962;-72
2023/05/16 08:00:39;;;;;;;;;;;14.50;99.90;;;;;;4950451;28;20383;-72
2023/05/16 08:03:05;;;;;;;;;;;14.50;99.90;;;;;;4948732;28;20313;-67
2023/05/16 08:05:31;;;;;;;;;;;14.50;99.90;;;;;;4952328;28;19922;-67
2023/05/16 08:07:56;;;;;;;;;;;14.60;99.90;;;;;;4946271;28;20671;-68
2023/05/16 08:10:22;;;;;;;;;;;14.60;99.90;;;;;;4941162;28;19914;-67
2023/05/16 08:12:48;;;;;;;;;;;14.70;99.90;;;;;;4956382;28;20004;-67
2023/05/16 08:15:13;;;;;;;;;;;14.70;99.90;;;;;;4952753;28;20292;-67
2023/05/16 08:17:39;;;;;;;;;;;14.60;99.90;;;;;;4955707;28;20069;-67
2023/05/16 08:20:04;;;;;;;;;;;14.60;99.90;;;;;;4941268;28;19968;-72
2023/05/16 08:22:30;;;;;;;;;;;14.60;99.90;;;;;;4956830;28;20285;-67
2023/05/16 08:24:56;;;;;;;;;;;14.70;99.90;;;;;;4954012;28;19961;-67
2023/05/16 08:27:22;;;;;;;;;;;14.70;99.90;;;;;;4953006;28;19924;-67
2023/05/16 08:29:48;;;;;;;;;;;14.70;99.90;;;;;;4955747;28;19921;-67
2023/05/16 08:32:13;;;;;;;;;;;14.70;99.90;;;;;;4953827;28;19924;-67
2023/05/16 08:34:39;;;;;;;;;;;14.70;99.90;;;;;;4953738;28;19922;-68
2023/05/16 08:37:05;;;;;;;;;;;14.70;99.90;;;;;;4954669;28;20205;-67
2023/05/16 08:39:30;;;;;;;;;;;14.70;99.90;;;;;;4952950;28;19941;-72
2023/05/16 08:41:57;;;;;;;;;;;14.70;99.90;;;;;;4951573;28;21800;-72
2023/05/16 08:44:23;;;;;;;;;;;14.70;99.90;;;;;;4938820;28;20079;-72
2023/05/16 08:46:50;;;;;;;;;;;14.60;99.90;;;;;;4951420;28;19932;-71
2023/05/16 08:49:16;;;;;;;;;;;14.70;99.90;;;;;;4952004;28;19918;-71
2023/05/16 08:51:42;;;;;;;;;;;14.70;99.90;;;;;;4951983;28;20016;-71
2023/05/16 08:54:12;;;;;;;;;;;14.70;99.90;;;;;;4945961;28;20005;-71
2023/05/16 08:56:37;;;;;;;;;;;14.60;99.90;;;;;;4958508;28;19910;-71
2023/05/16 08:59:03;;;;;;;;;;;14.60;99.90;;;;;;4957599;28;19930;-67
2023/05/16 09:01:30;;;;;;;;;;;14.70;99.90;;;;;;4949699;28;19988;-67
2023/05/16 09:03:56;;;;;;;;;;;14.70;99.90;;;;;;4953858;28;19972;-67
2023/05/16 09:06:21;;;;;;;;;;;14.80;99.90;;;;;;4955154;28;19922;-67
2023/05/16 09:08:46;;;;;;;;;;;14.80;99.90;;;;;;4948039;28;19929;-67
2023/05/16 09:11:12;;;;;;;;;;;14.70;99.90;;;;;;4955800;28;19918;-67
2023/05/16 09:13:38;;;;;;;;;;;14.80;99.90;;;;;;4951920;28;19997;-67
2023/05/16 09:16:07;;;;;;;;;;;14.80;99.90;;;;;;4952480;28;19977;-67
2023/05/16 09:18:32;;;;;;;;;;;14.90;99.90;;;;;;4943320;28;19988;-71
2023/05/16 09:20:58;;;;;;;;;;;14.80;99.90;;;;;;4953017;28;19918;-71
2023/05/16 09:23:24;;;;;;;;;;;14.80;99.90;;;;;;4953947;28;19914;-70
2023/05/16 09:25:52;;;;;;;;;;;14.90;99.90;;;;;;4948479;28;20004;-71
2023/05/16 09:28:17;;;;;;;;;;;14.90;99.90;;;;;;4946425;28;20478;-71
2023/05/16 09:30:45;;;;;;;;;;;14.90;99.90;;;;;;4951087;28;19918;-71
2023/05/16 09:33:11;;;;;;;;;;;14.90;99.90;;;;;;4951312;28;19930;-71
2023/05/16 09:35:36;;;;;;;;;;;14.90;99.90;;;;;;4953668;28;19914;-70
2023/05/16 09:38:02;;;;;;;;;;;15.00;99.90;;;;;;4956787;28;19960;-70
2023/05/16 09:40:27;;;;;;;;;;;15.00;99.90;;;;;;4948879;28;19937;-71
2023/05/16 09:43:00;;;;;;;;;;;15.00;99.90;;;;;;4956049;28;19992;-71
2023/05/16 09:45:26;;;;;;;;;;;15.00;99.90;;;;;;4950204;28;19976;-71
2023/05/16 09:47:51;;;;;;;;;;;15.00;99.90;;;;;;4948574;28;19918;-71
2023/05/16 09:50:17;;;;;;;;;;;14.90;99.90;;;;;;4951780;28;19914;-71
2023/05/16 09:52:42;;;;;;;;;;;14.90;99.90;;;;;;4949810;28;19924;-71
2023/05/16 09:55:09;;;;;;;;;;;14.90;99.90;;;;;;4951362;28;20088;-70
2023/05/16 09:57:38;;;;;;;;;;;15.00;99.90;;;;;;4949415;28;19998;-66
2023/05/16 10:00:07;;;;;;;;;;;15.00;99.90;;;;;;4951531;28;20059;-66
2023/05/16 10:02:33;;;;;;;;;;;15.10;99.90;;;;;;4947646;28;19918;-66
2023/05/16 10:04:59;;;;;;;;;;;15.10;99.90;;;;;;4946574;28;20016;-66
2023/05/16 10:07:24;;;;;;;;;;;15.10;99.90;;;;;;4949189;28;20475;-66
2023/05/16 10:09:51;;;;;;;;;;;15.10;99.90;;;;;;4937010;28;20264;-65
2023/05/16 10:12:17;;;;;;;;;;;15.10;99.90;;;;;;4954627;28;19914;-66
2023/05/16 10:14:45;;;;;;;;;;;15.20;99.90;;;;;;4954486;28;19914;-70
2023/05/16 10:17:13;;;;;;;;;;;15.20;99.90;;;;;;4952218;28;20256;-70
2023/05/16 10:19:39;;;;;;;;;;;15.20;99.90;;;;;;4949481;28;19915;-70
2023/05/16 10:22:05;;;;;;;;;;;15.20;99.90;;;;;;4946044;28;19918;-70
2023/05/16 10:24:47;;;;;;;;;;;15.30;99.90;;;;;;4949543;28;20729;-71
2023/05/16 10:27:13;;;;;;;;;;;15.20;99.90;;;;;;4937611;28;19917;-71
2023/05/16 10:29:39;;;;;;;;;;;15.20;99.90;;;;;;4952644;28;19928;-71
2023/05/16 10:32:05;;;;;;;;;;;15.20;99.90;;;;;;4950386;28;20166;-70
2023/05/16 10:34:31;;;;;;;;;;;15.30;99.90;;;;;;4948301;28;20049;-66
2023/05/16 10:36:57;;;;;;;;;;;15.30;99.90;;;;;;4950864;28;20379;-66
2023/05/16 10:39:23;;;;;;;;;;;15.30;99.90;;;;;;4956154;28;20008;-67
2023/05/16 10:41:49;;;;;;;;;;;15.30;99.90;;;;;;4956445;28;20020;-66
2023/05/16 10:44:16;;;;;;;;;;;15.40;99.90;;;;;;4946985;28;20367;-67
2023/05/16 10:46:41;;;;;;;;;;;15.30;99.90;;;;;;4946592;28;19980;-69
2023/05/16 10:49:27;;;;;;;;;;;15.30;99.90;;;;;;4951548;28;20008;-68
2023/05/16 10:52:02;;;;;;;;;;;15.30;99.90;;;;;;4951254;28;19968;-67
2023/05/16 10:54:38;;;;;;;;;;;15.30;99.90;;;;;;4945134;28;19914;-72
2023/05/16 10:57:05;;;;;;;;;;;15.30;99.90;;;;;;4946962;28;20441;-72
2023/05/16 10:59:38;;;;;;;;;;;15.30;99.90;;;;;;4945760;28;19914;-72
2023/05/16 11:02:19;;;;;;;;;;;15.40;99.90;;;;;;4953777;28;19910;-72
2023/05/16 11:04:47;;;;;;;;;;;15.40;99.90;;;;;;4955051;28;19910;-72
2023/05/16 11:07:12;;;;;;;;;;;15.40;99.90;;;;;;4950071;28;20389;-72
2023/05/16 11:09:42;;;;;;;;;;;15.40;99.90;;;;;;4947836;28;19910;-72
2023/05/16 11:12:08;;;;;;;;;;;15.50;99.90;;;;;;4950453;28;21545;-71
2023/05/16 11:14:36;;;;;;;;;;;15.50;99.90;;;;;;4954917;28;19914;-71
2023/05/16 11:17:07;;;;;;;;;;;15.50;99.90;;;;;;4947522;28;19981;-72
2023/05/16 11:19:34;;;;;;;;;;;15.40;99.90;;;;;;4948762;28;19918;-72
2023/05/16 11:22:07;;;;;;;;;;;15.50;99.90;;;;;;4955675;28;19925;-71
2023/05/16 11:24:34;;;;;;;;;;;15.50;99.90;;;;;;4953150;28;20441;-71
2023/05/16 11:27:00;;;;;;;;;;;15.60;99.90;;;;;;4950906;28;19922;-72
2023/05/16 11:29:27;;;;;;;;;;;15.60;99.90;;;;;;4950208;28;19999;-71
2023/05/16 11:31:53;;;;;;;;;;;15.60;99.90;;;;;;4952422;28;20000;-71
2023/05/16 11:34:18;;;;;;;;;;;15.60;99.90;;;;;;4950575;28;19914;-71
2023/05/16 11:36:44;;;;;;;;;;;15.70;99.90;;;;;;4950830;28;19914;-71
2023/05/16 11:39:11;;;;;;;;;;;15.60;99.90;;;;;;4958119;28;19997;-71
2023/05/16 11:41:37;;;;;;;;;;;15.60;99.90;;;;;;4957030;28;20772;-71
2023/05/16 11:44:04;;;;;;;;;;;15.70;99.90;;;;;;4952050;28;19992;-71
2023/05/16 11:46:30;;;;;;;;;;;15.70;99.90;;;;;;4956857;28;19922;-71
2023/05/16 11:48:56;;;;;;;;;;;15.70;99.90;;;;;;4955493;28;20390;-70
2023/05/16 11:51:21;;;;;;;;;;;15.70;99.90;;;;;;4955451;28;19926;-70
2023/05/16 11:53:48;;;;;;;;;;;15.70;99.90;;;;;;4950929;28;20439;-71
2023/05/16 11:56:14;;;;;;;;;;;15.70;99.90;;;;;;4952588;28;20406;-71
2023/05/16 11:58:41;;;;;;;;;;;15.70;99.90;;;;;;4959519;28;19918;-71
2023/05/16 12:01:07;;;;;;;;;;;15.60;99.90;;;;;;4951459;28;19918;-70
2023/05/16 12:03:34;;;;;;;;;;;15.70;99.90;;;;;;4954216;28;19914;-71
2023/05/16 12:05:59;;;;;;;;;;;15.70;99.90;;;;;;4948202;28;20070;-71
2023/05/16 12:08:25;;;;;;;;;;;15.70;99.90;;;;;;4949938;28;19922;-66
2023/05/16 12:10:51;;;;;;;;;;;15.70;99.90;;;;;;4956549;28;20462;-70
2023/05/16 12:13:18;;;;;;;;;;;15.70;99.90;;;;;;4948140;28;19954;-70
2023/05/16 12:15:43;;;;;;;;;;;15.70;99.90;;;;;;4947510;28;20029;-70
2023/05/16 12:18:10;;;;;;;;;;;15.70;99.90;;;;;;4945993;28;19942;-71
2023/05/16 12:20:35;;;;;;;;;;;15.80;99.90;;;;;;4950850;28;20033;-70
2023/05/16 12:23:01;;;;;;;;;;;15.80;99.90;;;;;;4951362;28;19921;-71
2023/05/16 12:25:26;;;;;;;;;;;15.80;99.90;;;;;;4957934;28;19945;-71
2023/05/16 12:27:56;;;;;;;;;;;15.90;99.90;;;;;;4948887;28;20766;-71
2023/05/16 12:30:23;;;;;;;;;;;15.80;99.90;;;;;;4957484;28;19918;-71
2023/05/16 12:32:52;;;;;;;;;;;15.80;99.90;;;;;;4953175;28;20065;-71
2023/05/16 12:35:17;;;;;;;;;;;15.80;99.90;;;;;;4947943;28;20264;-71
2023/05/16 12:37:42;;;;;;;;;;;15.90;99.90;;;;;;4950831;28;19930;-71
2023/05/16 12:40:09;;;;;;;;;;;15.90;99.90;;;;;;4952770;28;19914;-71
2023/05/16 12:42:35;;;;;;;;;;;15.90;99.90;;;;;;4947255;28;20391;-71
2023/05/16 12:45:00;;;;;;;;;;;15.90;99.90;;;;;;4954724;28;19989;-71
2023/05/16 12:47:34;;;;;;;;;;;15.90;99.90;;;;;;4947881;28;19961;-67
2023/05/16 12:50:00;;;;;;;;;;;15.90;99.90;;;;;;4952971;28;19920;-67
2023/05/16 12:52:27;;;;;;;;;;;16.00;99.90;;;;;;4951630;28;20012;-67
2023/05/16 12:54:53;;;;;;;;;;;16.00;99.90;;;;;;4952789;28;20009;-67
2023/05/16 12:57:18;;;;;;;;;;;16.00;99.90;;;;;;4956347;28;19932;-67
2023/05/16 12:59:44;;;;;;;;;;;16.00;99.90;;;;;;4955463;28;19911;-67
2023/05/16 13:02:10;;;;;;;;;;;16.00;99.90;;;;;;4945623;28;19910;-67
2023/05/16 13:04:36;;;;;;;;;;;16.00;99.90;;;;;;4938197;28;20405;-66
2023/05/16 13:07:03;;;;;;;;;;;16.00;99.90;;;;;;4947539;28;20000;-67
2023/05/16 13:09:29;;;;;;;;;;;16.00;99.90;;;;;;4950419;28;20013;-70
2023/05/16 13:11:55;;;;;;;;;;;16.00;99.90;;;;;;4949204;28;19914;-70
2023/05/16 13:14:21;;;;;;;;;;;16.10;99.90;;;;;;4951861;28;20390;-70
2023/05/16 13:16:47;;;;;;;;;;;16.10;99.90;;;;;;4949515;28;21210;-70
2023/05/16 13:19:12;;;;;;;;;;;16.10;99.90;;;;;;4951430;28;20756;-70
2023/05/16 13:21:38;;;;;;;;;;;16.20;99.90;;;;;;4948385;28;20368;-70
2023/05/16 13:24:03;;;;;;;;;;;16.20;99.90;;;;;;4951290;28;19957;-70
2023/05/16 13:26:30;;;;;;;;;;;16.30;99.90;;;;;;4944112;28;19926;-67
2023/05/16 13:28:55;;;;;;;;;;;16.30;99.90;;;;;;4947781;28;20029;-67
2023/05/16 13:31:21;;;;;;;;;;;16.30;99.90;;;;;;4944353;28;19918;-67
2023/05/16 13:33:47;;;;;;;;;;;16.30;99.90;;;;;;4947488;28;19913;-67
2023/05/16 13:36:12;;;;;;;;;;;16.30;99.90;;;;;;4950312;28;20012;-67
2023/05/16 13:38:38;;;;;;;;;;;16.30;99.90;;;;;;4946114;28;20240;-67
2023/05/16 13:41:03;;;;;;;;;;;16.30;99.90;;;;;;4950860;28;19925;-67
2023/05/16 13:43:29;;;;;;;;;;;16.30;99.90;;;;;;4943025;28;20352;-69
2023/05/16 13:45:55;;;;;;;;;;;16.30;99.90;;;;;;4960837;28;19928;-67
2023/05/16 13:48:21;;;;;;;;;;;16.30;99.90;;;;;;4948869;28;19918;-67
2023/05/16 13:50:46;;;;;;;;;;;16.20;99.90;;;;;;4947799;28;19964;-67
2023/05/16 13:53:12;;;;;;;;;;;16.20;99.90;;;;;;4953628;28;19965;-66
2023/05/16 13:55:37;;;;;;;;;;;16.20;99.90;;;;;;4951848;28;19952;-67
2023/05/16 13:58:03;;;;;;;;;;;16.20;99.90;;;;;;4945699;28;19909;-66
2023/05/16 14:00:29;;;;;;;;;;;16.10;99.90;;;;;;4950693;28;20033;-66
2023/05/16 14:02:55;;;;;;;;;;;16.10;99.90;;;;;;4954693;28;19920;-67
2023/05/16 14:05:20;;;;;;;;;;;16.10;99.90;;;;;;4942483;28;19914;-70
2023/05/16 14:07:46;;;;;;;;;;;16.10;99.90;;;;;;4947884;28;20703;-68
2023/05/16 14:10:12;;;;;;;;;;;16.10;99.90;;;;;;4949361;28;19921;-68